createdAt,value
2023-04-21T00:00:28.146Z,3.88
2023-04-21T00:03:33.906Z,4.15
2023-04-21T00:06:41.506Z,4.03
2023-04-21T00:09:44.996Z,3.95
2023-04-21T00:12:48.200Z,3.85
2023-04-21T00:15:52.046Z,4.63
2023-04-21T00:18:55.625Z,4.63
2023-04-21T00:22:01.173Z,4.70
2023-04-21T00:25:06.128Z,4.13
2023-04-21T00:28:10.003Z,3.97
2023-04-21T00:31:14.677Z,4.90
2023-04-21T00:34:20.664Z,3.88
2023-04-21T00:37:25.614Z,3.75
2023-04-21T00:40:30.294Z,3.80
2023-04-21T00:43:34.891Z,4.70
2023-04-21T00:46:39.557Z,4.07
2023-04-21T00:49:45.301Z,4.40
2023-04-21T00:52:51.468Z,4.07
2023-04-21T00:55:55.189Z,4.30
2023-04-21T00:59:03.188Z,4.05
2023-04-21T01:02:07.614Z,3.97
2023-04-21T01:05:12.624Z,3.30
2023-04-21T01:08:18.826Z,3.35
2023-04-21T01:11:22.767Z,3.63
2023-04-21T01:14:27.841Z,3.90
2023-04-21T01:17:31.598Z,3.55
2023-04-21T01:20:36.363Z,4.10
2023-04-21T01:23:44.673Z,3.75
2023-04-21T01:26:49.617Z,4.32
2023-04-21T01:29:54.024Z,3.95
2023-04-21T01:32:58.607Z,3.95
2023-04-21T01:36:05.296Z,3.60
2023-04-21T01:39:11.262Z,3.65
2023-04-21T01:42:16.682Z,3.42
2023-04-21T01:45:20.185Z,3.65
2023-04-21T01:48:25.427Z,4.50
2023-04-21T01:51:31.483Z,3.60
2023-04-21T01:54:37.791Z,3.45
2023-04-21T01:57:41.491Z,4.38
2023-04-21T02:00:45.526Z,3.65
2023-04-21T02:03:53.030Z,3.72
2023-04-21T02:06:58.040Z,4.57
2023-04-21T02:10:03.278Z,3.97
2023-04-21T02:13:07.027Z,3.88
2023-04-21T02:16:13.978Z,3.47
2023-04-21T02:19:29.044Z,3.90
2023-04-21T02:22:32.847Z,4.07
2023-04-21T02:25:41.228Z,4.50
2023-04-21T02:28:44.783Z,4.05
2023-04-21T02:32:00.871Z,4.07
2023-04-21T02:35:07.502Z,4.20
2023-04-21T02:38:11.402Z,3.10
2023-04-21T02:41:16.279Z,3.25
2023-04-21T02:44:19.812Z,4.18
2023-04-21T02:47:29.925Z,4.00
2023-04-21T02:50:36.010Z,3.22
2023-04-21T02:53:40.760Z,3.83
2023-04-21T02:56:47.016Z,3.38
2023-04-21T02:59:51.372Z,4.05
2023-04-21T03:02:57.375Z,3.63
2023-04-21T03:06:01.835Z,3.90
2023-04-21T03:09:05.797Z,4.32
2023-04-21T03:12:13.334Z,3.58
2023-04-21T03:15:19.666Z,4.10
2023-04-21T03:18:23.745Z,3.42
2023-04-21T03:21:28.059Z,3.45
2023-04-21T03:24:32.330Z,4.15
2023-04-21T03:27:37.008Z,3.75
2023-04-21T03:30:44.201Z,4.03
2023-04-21T03:33:48.732Z,3.97
2023-04-21T03:36:53.909Z,4.35
2023-04-21T03:39:58.054Z,3.92
2023-04-21T03:43:05.073Z,4.47
2023-04-21T03:46:10.295Z,4.43
2023-04-21T03:49:20.642Z,4.38
2023-04-21T03:52:24.314Z,4.15
2023-04-21T03:55:27.767Z,4.20
2023-04-21T03:58:32.976Z,4.22
2023-04-21T04:01:42.355Z,4.20
2023-04-21T04:04:47.804Z,3.75
2023-04-21T04:07:51.631Z,3.88
2023-04-21T04:10:56.597Z,4.38
2023-04-21T04:14:02.878Z,3.83
2023-04-21T04:17:06.596Z,4.05
2023-04-21T04:20:10.366Z,4.40
2023-04-21T04:23:13.770Z,4.07
2023-04-21T04:26:18.896Z,3.85
2023-04-21T04:29:28.176Z,3.78
2023-04-21T04:32:33.421Z,3.75
2023-04-21T04:35:41.109Z,4.13
2023-04-21T04:38:49.602Z,4.20
2023-04-21T04:41:54.549Z,4.05
2023-04-21T04:45:01.990Z,4.00
2023-04-21T04:48:05.924Z,4.28
2023-04-21T04:51:13.874Z,4.30
2023-04-21T04:54:24.646Z,4.55
2023-04-21T04:57:30.500Z,3.90
2023-04-21T05:00:37.121Z,4.07
2023-04-21T05:03:42.632Z,4.30
2023-04-21T05:06:48.535Z,4.40
2023-04-21T05:09:52.476Z,4.30
2023-04-21T05:12:57.231Z,4.50
2023-04-21T05:16:04.061Z,3.97
2023-04-21T05:19:07.901Z,4.65
2023-04-21T05:22:11.743Z,4.90
2023-04-21T05:25:15.883Z,5.03
2023-04-21T05:28:19.873Z,4.40
2023-04-21T05:31:25.787Z,4.30
2023-04-21T05:34:31.187Z,4.10
2023-04-21T05:37:34.884Z,4.75
2023-04-21T05:40:39.470Z,3.95
2023-04-21T05:43:43.127Z,4.97
2023-04-21T05:46:49.965Z,4.72
2023-04-21T05:49:55.638Z,3.85
2023-04-21T05:53:01.644Z,4.72
2023-04-21T05:56:06.298Z,4.15
2023-04-21T05:59:09.907Z,4.35
2023-04-21T06:02:16.586Z,4.35
2023-04-21T06:05:21.291Z,4.82
2023-04-21T06:08:26.889Z,4.20
2023-04-21T06:11:31.371Z,4.40
2023-04-21T06:14:35.244Z,4.90
2023-04-21T06:17:40.530Z,4.10
2023-04-21T06:20:43.953Z,4.20
2023-04-21T06:23:50.805Z,4.15
2023-04-21T06:26:55.121Z,3.92
2023-04-21T06:29:59.795Z,4.35
2023-04-21T06:33:06.824Z,4.40
2023-04-21T06:36:11.941Z,4.53
2023-04-21T06:39:16.516Z,4.72
2023-04-21T06:42:20.148Z,4.32
2023-04-21T06:45:23.956Z,4.95
2023-04-21T06:48:30.219Z,4.45
2023-04-21T06:51:35.570Z,5.13
2023-04-21T06:54:41.735Z,4.07
2023-04-21T06:57:49.580Z,3.95
2023-04-21T07:00:56.406Z,4.47
2023-04-21T07:04:06.427Z,3.80
2023-04-21T07:07:15.686Z,4.22
2023-04-21T07:10:21.222Z,4.90
2023-04-21T07:13:27.286Z,4.00
2023-04-21T07:16:32.294Z,4.20
2023-04-21T07:19:42.016Z,4.70
2023-04-21T07:22:46.282Z,4.85
2023-04-21T07:25:50.076Z,3.83
2023-04-21T07:28:55.323Z,4.10
2023-04-21T07:32:00.824Z,4.50
2023-04-21T07:35:08.659Z,4.18
2023-04-21T07:38:13.850Z,4.55
2023-04-21T07:41:17.920Z,3.83
2023-04-21T07:44:24.457Z,4.82
2023-04-21T07:47:29.391Z,4.18
2023-04-21T07:50:36.884Z,4.00
2023-04-21T07:53:40.455Z,4.35
2023-04-21T07:56:44.983Z,5.18
2023-04-21T07:59:49.768Z,3.70
2023-04-21T08:02:57.503Z,4.82
2023-04-21T08:06:05.874Z,4.22
2023-04-21T08:09:12.708Z,4.28
2023-04-21T08:12:16.269Z,4.70
2023-04-21T08:15:22.981Z,3.55
2023-04-21T08:18:31.374Z,4.38
2023-04-21T08:21:37.902Z,4.40
2023-04-21T08:24:44.827Z,3.67
2023-04-21T08:27:48.987Z,4.05
2023-04-21T08:30:52.977Z,5.07
2023-04-21T08:34:02.819Z,4.10
2023-04-21T08:37:10.277Z,4.40
2023-04-21T08:40:14.658Z,4.60
2023-04-21T08:43:18.550Z,4.20
2023-04-21T08:46:23.421Z,5.40
2023-04-21T08:49:34.663Z,4.53
2023-04-21T08:52:39.830Z,4.38
2023-04-21T08:55:43.706Z,4.38
2023-04-21T08:58:51.866Z,4.15
2023-04-21T09:02:14.105Z,4.30
2023-04-21T09:05:23.670Z,4.03
2023-04-21T09:08:30.465Z,4.20
2023-04-21T09:11:35.321Z,4.15
2023-04-21T09:14:40.157Z,4.00
2023-04-21T09:17:47.215Z,4.10
2023-04-21T09:20:51.681Z,4.38
2023-04-21T09:23:56.997Z,3.97
2023-04-21T09:27:00.574Z,4.22
2023-04-21T09:30:06.595Z,4.00
2023-04-21T09:33:20.206Z,4.50
2023-04-21T09:36:32.301Z,4.25
2023-04-21T09:39:46.443Z,3.70
2023-04-21T09:42:56.640Z,3.95
2023-04-21T09:46:00.883Z,3.92
2023-04-21T09:49:06.901Z,4.13
2023-04-21T09:52:18.967Z,3.42
2023-04-21T09:55:33.709Z,3.80
2023-04-21T09:58:40.991Z,3.83
2023-04-21T10:01:45.492Z,4.45
2023-04-21T10:04:52.373Z,3.78
2023-04-21T10:07:56.076Z,4.03
2023-04-21T10:11:03.499Z,3.53
2023-04-21T10:14:07.980Z,4.00
2023-04-21T10:17:12.994Z,4.32
2023-04-21T10:20:17.330Z,4.25
2023-04-21T10:23:34.236Z,4.30
2023-04-21T10:26:39.748Z,4.50
2023-04-21T10:29:56.252Z,4.10
2023-04-21T10:33:04.765Z,3.83
2023-04-21T10:36:09.481Z,4.00
2023-04-21T10:39:16.472Z,4.38
2023-04-21T10:42:23.091Z,4.07
2023-04-21T10:45:27.104Z,4.10
2023-04-21T10:48:30.760Z,4.30
2023-04-21T10:51:34.543Z,4.13
2023-04-21T10:54:42.060Z,4.15
2023-04-21T10:57:48.241Z,4.18
2023-04-21T11:00:56.208Z,3.40
2023-04-21T11:04:01.424Z,4.47
2023-04-21T11:07:08.682Z,3.92
2023-04-21T11:10:12.892Z,4.20
2023-04-21T11:13:18.095Z,4.32
2023-04-21T11:16:22.808Z,3.88
2023-04-21T11:19:26.720Z,3.38
2023-04-21T11:22:31.140Z,3.78
2023-04-21T11:25:35.698Z,4.18
2023-04-21T11:28:43.306Z,3.10
2023-04-21T11:31:49.165Z,4.18
2023-04-21T11:34:53.676Z,3.67
2023-04-21T11:37:58.073Z,3.97
2023-04-21T11:41:07.286Z,4.00
2023-04-21T11:44:14.301Z,3.60
2023-04-21T11:47:18.805Z,4.03
2023-04-21T11:50:34.575Z,4.07
2023-04-21T11:53:38.540Z,3.65
2023-04-21T11:56:42.288Z,3.45
2023-04-21T11:59:48.578Z,3.97
2023-04-21T12:02:56.765Z,4.07
2023-04-21T12:06:01.471Z,4.03
2023-04-21T12:09:05.257Z,3.58
2023-04-21T12:12:10.105Z,3.63
2023-04-21T12:15:20.388Z,3.85
2023-04-21T12:18:31.049Z,3.72
2023-04-21T12:21:35.576Z,3.83
2023-04-21T12:24:39.935Z,3.75
2023-04-21T12:27:50.490Z,2.72
2023-04-21T12:30:55.900Z,4.00
2023-04-21T12:34:01.988Z,2.60
2023-04-21T12:37:07.186Z,3.35
2023-04-21T12:40:11.018Z,4.18
2023-04-21T12:43:16.292Z,3.85
2023-04-21T12:46:25.402Z,3.78
2023-04-21T12:49:34.833Z,4.05
2023-04-21T12:52:38.827Z,1.95
2023-04-21T12:55:56.758Z,4.10
2023-04-21T12:59:04.837Z,3.90
2023-04-21T13:02:12.500Z,3.35
2023-04-21T13:05:16.362Z,3.22
2023-04-21T13:08:19.857Z,3.75
2023-04-21T13:11:23.567Z,3.53
2023-04-21T13:14:33.616Z,3.63
2023-04-21T13:17:39.002Z,4.28
2023-04-21T13:20:42.752Z,3.40
2023-04-21T13:23:46.260Z,3.85
2023-04-21T13:26:50.774Z,3.97
2023-04-21T13:29:57.518Z,4.13
2023-04-21T13:33:03.063Z,3.38
2023-04-21T13:36:12.370Z,3.50
2023-04-21T13:39:17.011Z,3.78
2023-04-21T13:42:21.376Z,4.25
2023-04-21T13:45:28.780Z,3.83
2023-04-21T13:48:34.054Z,3.88
2023-04-21T13:51:37.665Z,3.38
2023-04-21T13:54:42.408Z,3.50
2023-04-21T13:57:46.165Z,3.70
2023-04-21T14:00:49.823Z,3.55
2023-04-21T14:03:57.623Z,4.30
2023-04-21T14:07:02.282Z,4.10
2023-04-21T14:10:08.080Z,3.30
2023-04-21T14:13:23.020Z,3.33
2023-04-21T14:16:32.049Z,3.97
2023-04-21T14:19:37.366Z,3.60
2023-04-21T14:22:41.998Z,4.00
2023-04-21T14:25:46.704Z,4.03
2023-04-21T14:28:51.275Z,3.38
2023-04-21T14:31:59.609Z,3.72
2023-04-21T14:35:06.119Z,3.75
2023-04-21T14:38:11.253Z,3.03
2023-04-21T14:41:20.766Z,3.40
2023-04-21T14:44:25.398Z,3.67
2023-04-21T14:47:31.349Z,3.63
2023-04-21T14:50:37.331Z,3.60
2023-04-21T14:53:41.478Z,3.10
2023-04-21T14:56:46.572Z,3.90
2023-04-21T14:59:51.205Z,3.10
2023-04-21T15:02:55.664Z,3.28
2023-04-21T15:06:04.087Z,3.40
2023-04-21T15:09:08.944Z,3.20
2023-04-21T15:12:17.049Z,3.85
2023-04-21T15:15:21.722Z,3.92
2023-04-21T15:18:28.152Z,4.10
2023-04-21T15:21:35.821Z,3.35
2023-04-21T15:24:41.904Z,3.78
2023-04-21T15:27:45.980Z,3.38
2023-04-21T15:30:49.630Z,3.50
2023-04-21T15:33:53.398Z,3.40
2023-04-21T15:37:00.224Z,3.30
2023-04-21T15:40:05.900Z,3.38
2023-04-21T15:43:09.263Z,3.55
2023-04-21T15:46:40.091Z,4.03
2023-04-21T15:49:44.335Z,3.42
2023-04-21T15:52:49.627Z,4.55
2023-04-21T15:55:54.313Z,3.03
2023-04-21T15:58:59.437Z,3.42
2023-04-21T16:02:03.383Z,3.50
2023-04-21T16:05:08.024Z,3.22
2023-04-21T16:08:13.309Z,3.00
2023-04-21T16:11:17.237Z,3.15
2023-04-21T16:14:21.231Z,3.28
2023-04-21T16:17:27.856Z,3.63
2023-04-21T16:20:36.835Z,3.72
2023-04-21T16:23:41.760Z,3.60
2023-04-21T16:26:46.649Z,3.13
2023-04-21T16:29:50.888Z,4.15
2023-04-21T16:32:54.685Z,5.65
2023-04-21T16:35:59.815Z,4.13
2023-04-21T16:39:07.060Z,3.50
2023-04-21T16:42:10.951Z,3.72
2023-04-21T16:45:14.467Z,3.55
2023-04-21T16:48:21.162Z,3.47
2023-04-21T16:51:26.536Z,3.80
2023-04-21T16:54:32.673Z,3.30
2023-04-21T16:57:39.080Z,3.60
2023-04-21T17:00:45.747Z,3.28
2023-04-21T17:03:52.329Z,3.08
2023-04-21T17:06:56.061Z,3.17
2023-04-21T17:10:02.041Z,3.40
2023-04-21T17:13:07.540Z,3.50
2023-04-21T17:16:13.108Z,3.40
2023-04-21T17:19:17.183Z,3.40
2023-04-21T17:22:21.231Z,3.47
2023-04-21T17:25:27.783Z,2.78
2023-04-21T17:28:32.034Z,3.17
2023-04-21T17:31:36.437Z,3.40
2023-04-21T17:34:41.582Z,3.50
2023-04-21T17:37:45.558Z,3.63
2023-04-21T17:40:50.596Z,3.30
2023-04-21T17:43:54.960Z,3.33
2023-04-21T17:46:59.390Z,3.00
2023-04-21T17:50:03.543Z,3.80
2023-04-21T17:53:07.299Z,3.17
2023-04-21T17:56:12.119Z,3.95
2023-04-21T17:59:16.500Z,3.78
2023-04-21T18:02:21.092Z,3.13
2023-04-21T18:05:25.623Z,4.00
2023-04-21T18:08:30.583Z,4.60
2023-04-21T18:11:35.626Z,3.50
2023-04-21T18:14:40.152Z,3.35
2023-04-21T18:17:47.463Z,3.45
2023-04-21T18:20:51.006Z,3.50
2023-04-21T18:23:54.520Z,3.47
2023-04-21T18:27:02.840Z,3.50
2023-04-21T18:30:07.902Z,3.08
2023-04-21T18:33:12.239Z,3.58
2023-04-21T18:36:15.800Z,3.22
2023-04-21T18:39:21.418Z,3.70
2023-04-21T18:42:28.557Z,3.15
2023-04-21T18:45:36.554Z,4.00
2023-04-21T18:48:40.881Z,3.67
2023-04-21T18:51:44.711Z,3.28
2023-04-21T18:54:48.120Z,3.47
2023-04-21T18:57:54.931Z,3.53
2023-04-21T19:00:59.193Z,3.45
2023-04-21T19:04:03.340Z,3.95
2023-04-21T19:07:10.183Z,3.17
2023-04-21T19:10:14.197Z,2.90
2023-04-21T19:13:22.248Z,3.55
2023-04-21T19:16:26.554Z,3.35
2023-04-21T19:19:32.523Z,4.13
2023-04-21T19:22:37.087Z,2.97
2023-04-21T19:25:41.339Z,3.08
2023-04-21T19:28:48.116Z,3.13
2023-04-21T19:31:53.911Z,3.05
2023-04-21T19:34:59.248Z,3.05
2023-04-21T19:38:05.981Z,3.25
2023-04-21T19:41:10.277Z,2.88
2023-04-21T19:44:16.810Z,2.78
2023-04-21T19:47:23.768Z,2.75
2023-04-21T19:50:33.739Z,2.90
2023-04-21T19:53:39.478Z,3.05
2023-04-21T19:56:44.555Z,2.75
2023-04-21T19:59:49.870Z,2.75
2023-04-21T20:02:56.774Z,2.47
2023-04-21T20:06:02.758Z,2.50
2023-04-21T20:09:13.009Z,2.90
2023-04-21T20:12:34.522Z,2.70
2023-04-21T20:15:43.343Z,2.50
2023-04-21T20:18:49.256Z,2.45
2023-04-21T20:21:57.649Z,2.75
2023-04-21T20:25:04.094Z,2.05
2023-04-21T20:28:08.224Z,2.40
2023-04-21T20:31:14.546Z,2.28
2023-04-21T20:34:18.292Z,2.17
2023-04-21T20:37:23.050Z,2.25
2023-04-21T20:40:27.206Z,2.70
2023-04-21T20:43:34.298Z,2.28
2023-04-21T20:46:39.225Z,2.45
2023-04-21T20:49:46.394Z,2.45
2023-04-21T20:52:50.627Z,2.85
2023-04-21T20:55:54.051Z,2.25
2023-04-21T20:58:57.599Z,2.08
2023-04-21T21:02:04.043Z,2.42
2023-04-21T21:05:13.987Z,2.53
2023-04-21T21:08:21.712Z,2.95
2023-04-21T21:11:26.728Z,2.80
2023-04-21T21:14:31.461Z,1.98
2023-04-21T21:17:40.687Z,2.30
2023-04-21T21:20:45.508Z,2.55
2023-04-21T21:23:51.347Z,2.55
2023-04-21T21:26:55.368Z,2.50
2023-04-21T21:30:01.338Z,2.00
2023-04-21T21:33:06.806Z,2.35
2023-04-21T21:36:11.830Z,2.58
2023-04-21T21:39:19.811Z,2.22
2023-04-21T21:42:30.584Z,2.70
2023-04-21T21:45:34.276Z,2.25
2023-04-21T21:48:49.039Z,2.65
2023-04-21T21:51:53.125Z,2.40
2023-04-21T21:54:57.804Z,2.63
2023-04-21T21:58:04.078Z,2.50
2023-04-21T22:01:07.953Z,2.00
2023-04-21T22:04:13.188Z,2.38
2023-04-21T22:07:17.699Z,1.98
2023-04-21T22:10:25.533Z,2.55
2023-04-21T22:13:29.512Z,2.55
2023-04-21T22:16:34.421Z,2.22
2023-04-21T22:19:41.992Z,2.53
2023-04-21T22:22:45.449Z,2.25
2023-04-21T22:25:52.801Z,1.70
2023-04-21T22:28:57.115Z,2.47
2023-04-21T22:32:01.056Z,2.03
2023-04-21T22:35:08.304Z,2.42
2023-04-21T22:38:12.046Z,2.17
2023-04-21T22:41:17.029Z,2.50
2023-04-21T22:44:21.360Z,2.17
2023-04-21T22:47:27.644Z,1.88
2023-04-21T22:50:34.629Z,2.15
2023-04-21T22:53:48.559Z,2.10
2023-04-21T22:56:55.472Z,1.63
2023-04-21T22:59:59.034Z,2.00
2023-04-21T23:03:05.354Z,1.80
2023-04-21T23:06:12.109Z,2.15
2023-04-21T23:09:18.944Z,2.53
2023-04-21T23:12:23.248Z,1.42
2023-04-21T23:15:27.073Z,2.10
2023-04-21T23:18:32.200Z,2.38
2023-04-21T23:21:40.796Z,2.05
2023-04-21T23:24:45.628Z,1.90
2023-04-21T23:27:49.255Z,2.30
2023-04-21T23:30:52.882Z,2.55
2023-04-21T23:34:00.171Z,2.00
2023-04-21T23:37:05.165Z,1.95
2023-04-21T23:40:11.237Z,1.70
2023-04-21T23:43:14.811Z,2.08
2023-04-21T23:46:18.834Z,1.63
2023-04-21T23:49:23.161Z,1.65
2023-04-21T23:52:29.083Z,1.75
2023-04-21T23:55:32.449Z,1.98
2023-04-21T23:58:36.942Z,1.60
